Time;durP1;ratioP1;P1;durP2;ratioP2;P2;SDS_P1;SDS_P2;PMS_P1;PMS_P2;Temp;Humidity;BMP_temperature;BMP_pressure;BME280_temperature;BME280_humidity;BME280_pressure;Samples;Min_cycle;Max_cycle;Signal;HPM_P1;HPM_P2
2023/06/29 00:00:28;;;;;;;;;;;;;;;23.80;47.18;101306.44;4133150;28;20004;-60
2023/06/29 00:02:31;;;;;;;;;;;;;;;23.79;47.23;101296.69;4131714;28;19937;-59
2023/06/29 00:04:32;;;;;;;;;;;;;;;23.79;46.99;101295.84;4132853;28;19941;-58
2023/06/29 00:06:36;;;;;;;;;;;;;;;23.77;47.46;101291.44;4131796;28;19926;-59
2023/06/29 00:08:37;;;;;;;;;;;;;;;23.77;47.34;101295.97;4132588;28;19930;-60
2023/06/29 00:10:40;;;;;;;;;;;;;;;23.75;47.31;101290.72;4132396;28;19948;-60
2023/06/29 00:12:41;;;;;;;;;;;;;;;23.74;47.43;101299.78;4130157;28;19930;-59
2023/06/29 00:14:43;;;;;;;;;;;;;;;23.74;47.68;101297.09;4132613;28;20024;-60
2023/06/29 00:16:45;;;;;;;;;;;;;;;23.73;47.50;101294.50;4132430;28;19953;-60
2023/06/29 00:18:46;;;;;;;;;;;;;;;23.65;47.82;101280.88;4132563;28;20161;-59
2023/06/29 00:20:51;;;;;;;;;;;;;;;23.72;47.45;101287.44;4132587;28;20009;-60
2023/06/29 00:22:52;;;;;;;;;;;;;;;23.72;47.23;101282.06;4131441;28;19962;-59
2023/06/29 00:24:59;;;;;;;;;;;;;;;23.72;47.74;101282.06;4132688;28;19968;-59
2023/06/29 00:27:00;;;;;;;;;;;;;;;23.70;47.69;101274.13;4132621;28;19931;-59
2023/06/29 00:29:02;;;;;;;;;;;;;;;23.72;47.37;101276.69;4132515;28;19926;-59
2023/06/29 00:31:03;;;;;;;;;;;;;;;23.72;47.39;101274.00;4131960;28;19980;-58
2023/06/29 00:33:05;;;;;;;;;;;;;;;23.73;47.70;101270.34;4131752;28;19952;-58
2023/06/29 00:35:07;;;;;;;;;;;;;;;23.71;47.84;101273.16;4132221;28;19926;-58
2023/06/29 00:37:08;;;;;;;;;;;;;;;23.70;47.41;101276.81;4132348;28;20348;-58
2023/06/29 00:39:10;;;;;;;;;;;;;;;23.69;47.53;101272.41;4130999;28;19929;-59
2023/06/29 00:41:11;;;;;;;;;;;;;;;23.70;47.35;101273.28;4130487;28;19926;-59
2023/06/29 00:43:13;;;;;;;;;;;;;;;23.70;47.70;101262.56;4132049;28;20244;-60
2023/06/29 00:45:15;;;;;;;;;;;;;;;23.69;47.45;101255.47;4131880;28;20304;-59
2023/06/29 00:47:17;;;;;;;;;;;;;;;23.69;47.36;101259.00;4131954;28;19926;-59
2023/06/29 00:49:19;;;;;;;;;;;;;;;23.69;47.21;101250.94;4132096;28;19973;-59
2023/06/29 00:51:20;;;;;;;;;;;;;;;23.70;47.40;101255.34;4131303;28;19933;-59
2023/06/29 00:53:22;;;;;;;;;;;;;;;23.69;47.65;101250.94;4131756;28;19961;-59
2023/06/29 00:55:23;;;;;;;;;;;;;;;23.69;47.43;101250.94;4131926;28;20398;-59
2023/06/29 00:57:25;;;;;;;;;;;;;;;23.69;47.20;101250.94;4132076;28;20452;-59
2023/06/29 00:59:27;;;;;;;;;;;;;;;23.69;47.67;101242.03;4131909;28;19925;-58
2023/06/29 01:01:28;;;;;;;;;;;;;;;23.67;47.47;101239.50;4131229;28;20020;-59
2023/06/29 01:03:30;;;;;;;;;;;;;;;23.66;47.65;101235.09;4130219;28;19929;-60
2023/06/29 01:05:33;;;;;;;;;;;;;;;23.66;47.81;101235.09;4131829;28;19929;-59
2023/06/29 01:07:56;;;;;;;;;;;;;;;23.66;47.81;101237.78;4131735;28;19958;-60
2023/06/29 01:09:59;;;;;;;;;;;;;;;23.67;47.66;101238.63;4131884;28;20332;-60
2023/06/29 01:12:02;;;;;;;;;;;;;;;23.66;47.62;101229.72;4131136;28;19988;-59
2023/06/29 01:14:05;;;;;;;;;;;;;;;23.66;47.62;101236.91;4131548;28;19925;-59
2023/06/29 01:16:07;;;;;;;;;;;;;;;23.66;47.62;101231.53;4131881;28;20418;-59
2023/06/29 01:18:11;;;;;;;;;;;;;;;23.65;47.47;101230.72;4131767;28;19961;-60
2023/06/29 01:20:15;;;;;;;;;;;;;;;23.65;47.56;101228.03;4131659;28;20402;-59
2023/06/29 01:22:20;;;;;;;;;;;;;;;23.65;47.67;101228.03;4130073;28;19964;-59
2023/06/29 01:24:24;;;;;;;;;;;;;;;23.64;47.36;101220.94;4131540;28;19926;-59
2023/06/29 01:26:26;;;;;;;;;;;;;;;23.65;47.48;101228.03;4131378;28;19961;-59
2023/06/29 01:28:28;;;;;;;;;;;;;;;23.64;47.53;101218.25;4131286;28;19925;-59
2023/06/29 01:30:31;;;;;;;;;;;;;;;23.63;47.73;101231.81;4131357;28;19934;-60
2023/06/29 01:32:35;;;;;;;;;;;;;;;23.64;47.26;101233.53;4130445;28;19925;-60
2023/06/29 01:34:38;;;;;;;;;;;;;;;23.65;47.18;101232.56;4131525;28;20391;-60
2023/06/29 01:36:42;;;;;;;;;;;;;;;23.64;47.60;101228.16;4131482;28;19926;-59
2023/06/29 01:38:47;;;;;;;;;;;;;;;23.63;47.43;101238.03;4131682;28;20013;-60
2023/06/29 01:40:49;;;;;;;;;;;;;;;23.64;47.56;101223.63;4131825;28;19926;-60
2023/06/29 01:42:52;;;;;;;;;;;;;;;23.63;47.27;101229.13;4130302;28;19929;-60
2023/06/29 01:44:54;;;;;;;;;;;;;;;23.62;47.46;101230.94;4131390;28;19926;-59
2023/06/29 01:46:56;;;;;;;;;;;;;;;23.62;47.24;101230.94;4131425;28;20459;-60
2023/06/29 01:48:58;;;;;;;;;;;;;;;23.63;47.21;101231.81;4131112;28;19933;-60
2023/06/29 01:50:59;;;;;;;;;;;;;;;23.62;47.27;101230.94;4131393;28;19980;-59
2023/06/29 01:53:01;;;;;;;;;;;;;;;23.61;47.39;101230.09;4130220;28;20364;-59
2023/06/29 01:55:03;;;;;;;;;;;;;;;23.60;47.27;101225.72;4131308;28;19926;-59
2023/06/29 01:57:06;;;;;;;;;;;;;;;23.61;47.14;101221.22;4131086;28;20030;-59
2023/06/29 01:59:07;;;;;;;;;;;;;;;23.60;47.37;101223.03;4131454;28;19980;-60
2023/06/29 02:01:09;;;;;;;;;;;;;;;23.60;47.22;101222.19;4131477;28;20372;-59
2023/06/29 02:03:10;;;;;;;;;;;;;;;23.61;47.25;101223.91;4130337;28;19926;-59
2023/06/29 02:05:12;;;;;;;;;;;;;;;23.61;47.49;101223.91;4131200;28;19926;-59
2023/06/29 02:07:14;;;;;;;;;;;;;;;23.60;47.33;101214.13;4129913;28;19926;-61
2023/06/29 02:09:15;;;;;;;;;;;;;;;23.60;47.12;101211.44;4131332;28;20514;-59
2023/06/29 02:11:17;;;;;;;;;;;;;;;23.58;47.22;101206.19;4131095;28;20005;-59
2023/06/29 02:13:18;;;;;;;;;;;;;;;23.58;47.22;101208.88;4130146;28;20427;-59
2023/06/29 02:15:20;;;;;;;;;;;;;;;23.58;47.57;101214.25;4131321;28;19957;-60
2023/06/29 02:17:21;;;;;;;;;;;;;;;23.57;47.42;101215.25;4131522;28;19934;-59
2023/06/29 02:19:23;;;;;;;;;;;;;;;23.58;47.22;101210.72;4131202;28;19932;-59
2023/06/29 02:21:24;;;;;;;;;;;;;;;23.58;47.33;101211.56;4131332;28;19926;-59
2023/06/29 02:23:26;;;;;;;;;;;;;;;23.57;47.20;101201.81;4130384;28;20021;-59
2023/06/29 02:25:27;;;;;;;;;;;;;;;23.58;47.35;101208.03;4131228;28;19936;-59
2023/06/29 02:27:29;;;;;;;;;;;;;;;23.57;47.20;101200.94;4130573;28;20450;-59
2023/06/29 02:29:30;;;;;;;;;;;;;;;23.57;47.61;101204.50;4130938;28;19941;-59
2023/06/29 02:31:32;;;;;;;;;;;;;;;23.57;47.35;101203.63;4130497;28;19969;-60
2023/06/29 02:33:34;;;;;;;;;;;;;;;23.57;47.27;101209.00;4131231;28;19926;-59
2023/06/29 02:35:35;;;;;;;;;;;;;;;23.56;47.34;101202.78;4133951;28;19933;-59
2023/06/29 02:37:37;;;;;;;;;;;;;;;23.56;47.48;101196.56;4134016;28;20024;-59
2023/06/29 02:39:38;;;;;;;;;;;;;;;23.54;47.48;101198.53;4134387;28;20391;-60
2023/06/29 02:41:40;;;;;;;;;;;;;;;23.54;47.43;101191.31;4133113;28;19981;-60
2023/06/29 02:43:41;;;;;;;;;;;;;;;23.55;47.44;101184.97;4134033;28;19930;-59
2023/06/29 02:45:43;;;;;;;;;;;;;;;23.54;47.80;101187.78;4133987;28;20355;-59
2023/06/29 02:47:45;;;;;;;;;;;;;;;23.53;47.69;101186.94;4134035;28;19971;-59
2023/06/29 02:49:46;;;;;;;;;;;;;;;23.53;47.44;101186.09;4133957;28;19972;-60
2023/06/29 02:51:48;;;;;;;;;;;;;;;23.53;47.60;101189.63;4133163;28;20016;-59
2023/06/29 02:53:49;;;;;;;;;;;;;;;23.54;47.57;101188.63;4133821;28;19979;-59
2023/06/29 02:55:51;;;;;;;;;;;;;;;23.54;47.56;101191.31;4133642;28;20382;-60
2023/06/29 02:57:52;;;;;;;;;;;;;;;23.51;47.51;101186.19;4134002;28;19926;-59
2023/06/29 02:59:54;;;;;;;;;;;;;;;23.52;47.49;101187.06;4134092;28;19932;-59
2023/06/29 03:01:55;;;;;;;;;;;;;;;23.52;47.45;101182.53;4132822;28;19925;-59
2023/06/29 03:03:57;;;;;;;;;;;;;;;23.52;47.54;101182.53;4133645;28;19976;-59
2023/06/29 03:05:59;;;;;;;;;;;;;;;23.52;47.81;101187.06;4133633;28;20486;-59
2023/06/29 03:08:00;;;;;;;;;;;;;;;23.52;47.74;101184.38;4133674;28;19926;-60
2023/06/29 03:10:02;;;;;;;;;;;;;;;23.51;47.69;101186.19;4133421;28;19934;-60
2023/06/29 03:12:03;;;;;;;;;;;;;;;23.52;47.67;101184.38;4132878;28;19925;-60
2023/06/29 03:14:05;;;;;;;;;;;;;;;23.51;47.72;101182.66;4132491;28;19926;-59
2023/06/29 03:16:07;;;;;;;;;;;;;;;23.52;47.76;101179.00;4133447;28;19933;-59
2023/06/29 03:18:11;;;;;;;;;;;;;;;23.44;47.44;101168.91;4133595;28;19929;-59
2023/06/29 03:20:16;;;;;;;;;;;;;;;23.51;47.58;101180.81;4133684;28;19932;-59
2023/06/29 03:22:17;;;;;;;;;;;;;;;23.50;47.83;101181.84;4132786;28;20388;-59
2023/06/29 03:24:19;;;;;;;;;;;;;;;23.50;47.86;101181.84;4132981;28;19981;-60
2023/06/29 03:26:20;;;;;;;;;;;;;;;23.39;47.81;101165.75;4133549;28;19925;-59
2023/06/29 03:28:22;;;;;;;;;;;;;;;23.50;47.90;101184.50;4133464;28;19965;-58
2023/06/29 03:30:23;;;;;;;;;;;;;;;23.50;47.69;101186.31;4133521;28;19926;-59
2023/06/29 03:32:25;;;;;;;;;;;;;;;23.50;47.58;101178.28;4132285;28;20036;-59
2023/06/29 03:34:26;;;;;;;;;;;;;;;23.48;47.96;101189.16;4133304;28;19926;-59
2023/06/29 03:36:28;;;;;;;;;;;;;;;23.49;47.66;101185.50;4132985;28;19933;-59
2023/06/29 03:38:29;;;;;;;;;;;;;;;23.49;47.66;101190.00;4133101;28;20022;-60
2023/06/29 03:40:31;;;;;;;;;;;;;;;23.48;47.71;101183.78;4133215;28;20021;-58
2023/06/29 03:42:32;;;;;;;;;;;;;;;23.48;47.64;101182.94;4132175;28;20112;-59
2023/06/29 03:44:34;;;;;;;;;;;;;;;23.47;47.86;101182.06;4133305;28;20017;-59
2023/06/29 03:46:36;;;;;;;;;;;;;;;23.37;47.59;101167.72;4132031;28;20001;-59
2023/06/29 03:48:37;;;;;;;;;;;;;;;23.46;47.66;101191.09;4133007;28;19929;-59
2023/06/29 03:50:40;;;;;;;;;;;;;;;23.46;47.78;101185.72;4133173;28;19972;-59
2023/06/29 03:52:42;;;;;;;;;;;;;;;23.46;47.84;101191.09;4131798;28;19930;-59
2023/06/29 03:54:44;;;;;;;;;;;;;;;23.46;47.62;101191.09;4132892;28;19936;-59
2023/06/29 03:56:45;;;;;;;;;;;;;;;23.44;47.69;101188.56;4132978;28;19968;-59
2023/06/29 03:58:47;;;;;;;;;;;;;;;23.45;47.58;101192.94;4132951;28;20410;-59
2023/06/29 04:00:48;;;;;;;;;;;;;;;23.45;47.55;101182.22;4133024;28;19926;-60
2023/06/29 04:02:50;;;;;;;;;;;;;;;23.45;47.55;101176.84;4132011;28;19988;-60
2023/06/29 04:04:52;;;;;;;;;;;;;;;23.45;47.85;101184.03;4132994;28;20423;-59
2023/06/29 04:06:53;;;;;;;;;;;;;;;23.44;47.66;101179.66;4132832;28;19954;-59
2023/06/29 04:08:55;;;;;;;;;;;;;;;23.38;47.95;101167.59;4132555;28;19926;-60
2023/06/29 04:10:56;;;;;;;;;;;;;;;23.44;47.81;101176.97;4133058;28;19926;-60
2023/06/29 04:12:58;;;;;;;;;;;;;;;23.43;47.65;101181.47;4131636;28;19926;-59
2023/06/29 04:14:59;;;;;;;;;;;;;;;23.44;47.91;101172.44;4132411;28;19926;-59
2023/06/29 04:17:01;;;;;;;;;;;;;;;23.43;47.66;101168.06;4132767;28;19967;-59
2023/06/29 04:19:02;;;;;;;;;;;;;;;23.43;47.66;101167.22;4131252;28;19930;-59
2023/06/29 04:21:04;;;;;;;;;;;;;;;23.41;47.79;101170.00;4131448;28;20019;-59
2023/06/29 04:23:06;;;;;;;;;;;;;;;23.40;47.76;101154.91;4131189;28;19926;-60
2023/06/29 04:25:07;;;;;;;;;;;;;;;23.40;48.06;101162.09;4132653;28;20016;-59
2023/06/29 04:27:10;;;;;;;;;;;;;;;23.39;48.20;101163.94;4132370;28;20013;-59
2023/06/29 04:29:11;;;;;;;;;;;;;;;23.38;47.97;101156.84;4132462;28;20400;-59
2023/06/29 04:31:13;;;;;;;;;;;;;;;23.38;48.25;101161.34;4132634;28;20371;-59
2023/06/29 04:33:15;;;;;;;;;;;;;;;23.39;48.05;101157.69;4131229;28;19929;-59
2023/06/29 04:35:17;;;;;;;;;;;;;;;23.38;48.28;101158.66;4132313;28;19980;-59
2023/06/29 04:37:18;;;;;;;;;;;;;;;23.37;48.19;101157.81;4131956;28;20032;-59
2023/06/29 04:39:20;;;;;;;;;;;;;;;23.37;48.21;101165.88;4132436;28;19929;-59
2023/06/29 04:41:31;;;;;;;;;;;;;;;23.37;48.34;101157.81;4132436;28;19936;-60
2023/06/29 04:43:33;;;;;;;;;;;;;;;23.36;48.23;101153.44;4131487;28;19930;-59
2023/06/29 04:45:34;;;;;;;;;;;;;;;23.37;48.33;101154.31;4132019;28;19926;-60
2023/06/29 04:47:36;;;;;;;;;;;;;;;23.36;48.21;101161.50;4132269;28;19925;-60
2023/06/29 04:49:39;;;;;;;;;;;;;;;23.35;48.52;101150.88;4131941;28;20017;-59
2023/06/29 04:51:41;;;;;;;;;;;;;;;23.24;48.65;101141.88;4131632;28;19926;-60
2023/06/29 04:53:42;;;;;;;;;;;;;;;23.34;48.75;101159.91;4130882;28;20024;-59
2023/06/29 04:55:44;;;;;;;;;;;;;;;23.33;48.74;101155.53;4130891;28;19926;-59
2023/06/29 04:57:46;;;;;;;;;;;;;;;23.32;48.64;101161.88;4130770;28;20395;-59
2023/06/29 04:59:47;;;;;;;;;;;;;;;23.32;48.90;101168.09;4132128;28;19926;-59
2023/06/29 05:01:49;;;;;;;;;;;;;;;23.32;49.18;101167.22;4130796;28;19960;-59
2023/06/29 05:03:51;;;;;;;;;;;;;;;23.31;49.07;101169.06;4131106;28;19926;-59
2023/06/29 05:05:52;;;;;;;;;;;;;;;23.32;48.81;101177.97;4131534;28;19936;-59
2023/06/29 05:07:54;;;;;;;;;;;;;;;23.33;49.03;101174.31;4132030;28;19926;-59
2023/06/29 05:09:55;;;;;;;;;;;;;;;23.33;49.21;101168.94;4131930;28;19997;-59
2023/06/29 05:11:57;;;;;;;;;;;;;;;23.32;48.94;101169.91;4131780;28;20037;-59
2023/06/29 05:13:58;;;;;;;;;;;;;;;23.31;48.68;101166.38;4130854;28;19932;-60
2023/06/29 05:16:00;;;;;;;;;;;;;;;23.31;48.96;101165.53;4131988;28;19954;-59
2023/06/29 05:18:02;;;;;;;;;;;;;;;23.31;48.85;101169.06;4130609;28;19980;-59
2023/06/29 05:20:05;;;;;;;;;;;;;;;23.32;48.79;101173.47;4131680;28;19965;-59
2023/06/29 05:22:06;;;;;;;;;;;;;;;23.33;48.56;101177.00;4131309;28;20030;-61
2023/06/29 05:24:08;;;;;;;;;;;;;;;23.32;48.69;101169.91;4131354;28;19926;-59
2023/06/29 05:26:09;;;;;;;;;;;;;;;23.31;48.70;101169.06;4131718;28;19933;-59
2023/06/29 05:28:11;;;;;;;;;;;;;;;23.31;49.10;101163.72;4131446;28;19925;-58
2023/06/29 05:30:13;;;;;;;;;;;;;;;23.31;48.83;101171.75;4131475;28;19933;-59
2023/06/29 05:32:15;;;;;;;;;;;;;;;23.31;48.56;101170.88;4130550;28;19968;-59
2023/06/29 05:34:16;;;;;;;;;;;;;;;23.31;48.79;101166.38;4130810;28;19932;-59
2023/06/29 05:36:17;;;;;;;;;;;;;;;23.32;48.72;101167.22;4131390;28;19926;-59
2023/06/29 05:38:19;;;;;;;;;;;;;;;23.30;48.87;101167.38;4131584;28;20009;-58
2023/06/29 05:40:21;;;;;;;;;;;;;;;23.30;48.90;101172.72;4131457;28;19954;-59
2023/06/29 05:42:25;;;;;;;;;;;;;;;23.29;48.82;101171.91;4130430;28;20340;-59
2023/06/29 05:44:26;;;;;;;;;;;;;;;23.30;49.26;101170.03;4131403;28;19974;-58
2023/06/29 05:46:28;;;;;;;;;;;;;;;23.29;48.95;101171.91;4131155;28;19968;-59
2023/06/29 05:48:29;;;;;;;;;;;;;;;23.29;49.28;101173.72;4131481;28;19972;-59
2023/06/29 05:50:31;;;;;;;;;;;;;;;23.29;49.27;101174.56;4131235;28;19937;-60
2023/06/29 05:52:37;;;;;;;;;;;;;;;23.29;48.96;101179.94;4130615;28;20397;-59
2023/06/29 05:54:39;;;;;;;;;;;;;;;23.29;49.37;101168.34;4131189;28;20354;-58
2023/06/29 05:56:40;;;;;;;;;;;;;;;23.29;49.02;101168.34;4131309;28;20013;-58
2023/06/29 05:58:42;;;;;;;;;;;;;;;23.29;48.93;101174.56;4131396;28;19953;-59
2023/06/29 06:00:44;;;;;;;;;;;;;;;23.29;49.33;101173.72;4131520;28;19941;-59
2023/06/29 06:02:46;;;;;;;;;;;;;;;23.30;49.01;101178.09;4130518;28;19933;-59
2023/06/29 06:04:49;;;;;;;;;;;;;;;23.29;49.26;101165.66;4130653;28;19930;-59
2023/06/29 06:06:50;;;;;;;;;;;;;;;23.29;48.90;101171.91;4131315;28;19925;-59
2023/06/29 06:08:52;;;;;;;;;;;;;;;23.29;49.09;101166.53;4131081;28;19933;-59
2023/06/29 06:10:54;;;;;;;;;;;;;;;23.29;48.89;101171.03;4134734;28;20013;-59
2023/06/29 06:12:55;;;;;;;;;;;;;;;23.29;49.09;101173.72;4133741;28;19926;-59
2023/06/29 06:14:57;;;;;;;;;;;;;;;23.28;48.95;101172.00;4134594;28;20021;-59
2023/06/29 06:16:58;;;;;;;;;;;;;;;23.28;49.07;101175.56;4133085;28;19993;-59
2023/06/29 06:19:00;;;;;;;;;;;;;;;23.28;48.99;101169.31;4134243;28;19926;-59
2023/06/29 06:21:01;;;;;;;;;;;;;;;23.28;49.02;101169.31;4134669;28;19930;-59
2023/06/29 06:23:03;;;;;;;;;;;;;;;23.28;49.02;101167.50;4133496;28;19980;-59
2023/06/29 06:25:05;;;;;;;;;;;;;;;23.28;48.82;101161.25;4134386;28;19968;-59
2023/06/29 06:27:07;;;;;;;;;;;;;;;23.30;48.99;101162.00;4134297;28;20383;-59
2023/06/29 06:29:08;;;;;;;;;;;;;;;23.29;49.26;101169.22;4134425;28;20300;-59
2023/06/29 06:31:10;;;;;;;;;;;;;;;23.29;49.24;101160.28;4134176;28;19926;-59
2023/06/29 06:33:32;;;;;;;;;;;;;;;23.31;49.08;101165.53;4131983;28;19976;-60
2023/06/29 06:35:34;;;;;;;;;;;;;;;23.31;48.89;101168.22;4134079;28;19930;-59
2023/06/29 06:37:36;;;;;;;;;;;;;;;23.31;48.95;101170.88;4133954;28;19991;-60
2023/06/29 06:39:38;;;;;;;;;;;;;;;23.30;49.08;101167.38;4133210;28;20026;-59
2023/06/29 06:41:39;;;;;;;;;;;;;;;23.31;49.17;101165.53;4134327;28;19929;-59
2023/06/29 06:43:41;;;;;;;;;;;;;;;23.30;49.07;101170.03;4133119;28;20387;-59
2023/06/29 06:45:42;;;;;;;;;;;;;;;23.30;49.11;101167.38;4134099;28;19926;-61
2023/06/29 06:47:44;;;;;;;;;;;;;;;23.31;48.88;101170.88;4133911;28;19957;-60
2023/06/29 06:49:46;;;;;;;;;;;;;;;23.31;49.04;101162.84;4133725;28;19933;-61
2023/06/29 06:51:47;;;;;;;;;;;;;;;23.32;49.25;101172.59;4134133;28;19970;-60
2023/06/29 06:53:49;;;;;;;;;;;;;;;23.32;49.56;101169.91;4133010;28;20012;-60
2023/06/29 06:55:51;;;;;;;;;;;;;;;23.36;49.07;101163.34;4131556;28;19969;-58
2023/06/29 06:57:52;;;;;;;;;;;;;;;23.49;48.90;101171.19;4131905;28;19997;-59
2023/06/29 06:59:54;;;;;;;;;;;;;;;23.56;49.33;101170.56;4132011;28;19930;-58
2023/06/29 07:01:55;;;;;;;;;;;;;;;23.62;49.43;101163.81;4119458;28;19988;-58
2023/06/29 07:03:57;;;;;;;;;;;;;;;23.65;49.26;101166.25;4127580;28;19933;-58
2023/06/29 07:05:59;;;;;;;;;;;;;;;23.71;49.06;101164.91;4120121;28;19933;-58
2023/06/29 07:08:00;;;;;;;;;;;;;;;23.75;49.56;101169.03;4125844;28;20024;-58
2023/06/29 07:10:02;;;;;;;;;;;;;;;23.79;49.03;101165.06;4120602;28;20395;-56
2023/06/29 07:12:04;;;;;;;;;;;;;;;23.84;48.96;101162.00;4118592;28;20292;-57
2023/06/29 07:14:06;;;;;;;;;;;;;;;23.87;48.53;101164.44;4127076;28;20395;-57
2023/06/29 07:16:07;;;;;;;;;;;;;;;23.91;48.48;101165.88;4116576;28;19930;-57
2023/06/29 07:18:09;;;;;;;;;;;;;;;23.94;48.39;101165.66;4124031;28;20393;-57
2023/06/29 07:20:12;;;;;;;;;;;;;;;23.97;49.41;101162.69;4120541;28;19930;-58
2023/06/29 07:22:17;;;;;;;;;;;;;;;24.01;49.11;101163.28;4118299;28;20006;-58
2023/06/29 07:24:21;;;;;;;;;;;;;;;24.06;48.47;101166.44;4126476;28;19997;-57
2023/06/29 07:26:23;;;;;;;;;;;;;;;24.09;48.92;101163.47;4116656;28;19953;-57
2023/06/29 07:28:25;;;;;;;;;;;;;;;24.09;48.88;101167.00;4122853;28;19926;-56
2023/06/29 07:30:26;;;;;;;;;;;;;;;24.12;49.77;101170.41;4121383;28;19957;-57
2023/06/29 07:32:28;;;;;;;;;;;;;;;24.15;49.08;101167.50;4117570;28;19927;-57
2023/06/29 07:34:30;;;;;;;;;;;;;;;24.15;48.90;101164.78;4126427;28;19984;-57
2023/06/29 07:36:32;;;;;;;;;;;;;;;24.17;49.80;101162.81;4123479;28;19926;-60
2023/06/29 07:38:33;;;;;;;;;;;;;;;24.20;49.66;101159.88;4126136;28;19934;-56
2023/06/29 07:40:35;;;;;;;;;;;;;;;24.24;49.00;101161.28;4124104;28;19925;-54
2023/06/29 07:42:37;;;;;;;;;;;;;;;24.27;48.76;101157.50;4131802;28;20008;-58
2023/06/29 07:44:41;;;;;;;;;;;;;;;24.26;48.40;101156.66;4127830;28;19925;-56
2023/06/29 07:46:42;;;;;;;;;;;;;;;24.24;48.46;101150.53;4116420;28;20000;-57
2023/06/29 07:48:44;;;;;;;;;;;;;;;24.13;49.09;101164.06;4122263;28;19929;-56
2023/06/29 07:50:45;;;;;;;;;;;;;;;24.05;49.29;101160.22;4124737;28;19930;-57
2023/06/29 07:52:47;;;;;;;;;;;;;;;24.00;49.17;101156.19;4115383;28;19926;-57
2023/06/29 07:54:49;;;;;;;;;;;;;;;24.00;50.17;101154.38;4125293;28;19984;-58
2023/06/29 07:56:51;;;;;;;;;;;;;;;24.02;51.76;101154.25;4123304;28;20256;-55
2023/06/29 07:58:55;;;;;;;;;;;;;;;24.09;52.02;101150.88;4127106;28;19933;-56
2023/06/29 08:00:56;;;;;;;;;;;;;;;24.03;51.45;101153.25;4132696;28;19931;-56
2023/06/29 08:02:58;;;;;;;;;;;;;;;23.91;52.32;101149.75;4129334;28;20202;-58
2023/06/29 08:05:00;;;;;;;;;;;;;;;23.85;52.41;101148.47;4125238;28;19926;-56
2023/06/29 08:07:06;;;;;;;;;;;;;;;23.83;52.28;101147.75;4117891;28;20018;-55
2023/06/29 08:09:11;;;;;;;;;;;;;;;23.82;53.59;101145.19;4117622;28;19965;-56
2023/06/29 08:11:13;;;;;;;;;;;;;;;23.80;53.04;101142.63;4126397;28;20075;-56
2023/06/29 08:13:16;;;;;;;;;;;;;;;23.83;52.99;101142.38;4115131;28;19926;-56
2023/06/29 08:15:17;;;;;;;;;;;;;;;23.85;52.77;101139.53;4124496;28;20330;-56
2023/06/29 08:17:19;;;;;;;;;;;;;;;23.90;52.65;101132.81;4118802;28;19930;-55
2023/06/29 08:19:21;;;;;;;;;;;;;;;23.93;52.77;101137.94;4117220;28;20378;-56
2023/06/29 08:21:22;;;;;;;;;;;;;;;23.95;52.98;101143.19;4126678;28;19933;-56
2023/06/29 08:23:24;;;;;;;;;;;;;;;23.97;53.03;101137.69;4115259;28;19934;-56
2023/06/29 08:25:26;;;;;;;;;;;;;;;24.01;52.77;101131.91;4123284;28;19925;-55
2023/06/29 08:27:27;;;;;;;;;;;;;;;23.98;52.66;101131.31;4120381;28;19949;-56
2023/06/29 08:29:33;;;;;;;;;;;;;;;23.93;52.93;101134.41;4116644;28;19945;-56
2023/06/29 08:31:35;;;;;;;;;;;;;;;24.01;53.25;101134.59;4123323;28;19933;-56
2023/06/29 08:33:37;;;;;;;;;;;;;;;24.15;53.11;101140.63;4130134;28;20338;-55
2023/06/29 08:35:38;;;;;;;;;;;;;;;24.22;52.56;101134.56;4127266;28;20310;-56
2023/06/29 08:37:40;;;;;;;;;;;;;;;24.19;53.55;101140.22;4131758;28;19926;-57
2023/06/29 08:39:41;;;;;;;;;;;;;;;24.20;53.53;101144.59;4127133;28;19949;-57
2023/06/29 08:41:43;;;;;;;;;;;;;;;24.17;53.00;101141.31;4123909;28;20372;-57
2023/06/29 08:43:45;;;;;;;;;;;;;;;24.13;53.25;101143.41;4129346;28;20232;-57
2023/06/29 08:45:46;;;;;;;;;;;;;;;24.20;52.56;101141.06;4126272;28;19940;-57
2023/06/29 08:47:51;;;;;;;;;;;;;;;24.24;52.06;101134.41;4122348;28;19961;-57
2023/06/29 08:49:56;;;;;;;;;;;;;;;24.29;52.99;101137.56;4129182;28;20371;-57
2023/06/29 08:51:59;;;;;;;;;;;;;;;24.31;53.01;101140.97;4119632;28;19934;-57
2023/06/29 08:54:01;;;;;;;;;;;;;;;24.35;52.28;101139.72;4130200;28;19988;-57
2023/06/29 08:56:03;;;;;;;;;;;;;;;24.36;52.32;101133.38;4126540;28;20315;-57
2023/06/29 08:58:05;;;;;;;;;;;;;;;24.36;51.82;101122.63;4123350;28;20020;-57
2023/06/29 09:00:07;;;;;;;;;;;;;;;24.38;51.74;101126.00;4131373;28;19930;-56
2023/06/29 09:02:10;;;;;;;;;;;;;;;24.23;51.87;101130.06;4119586;28;19969;-56
2023/06/29 09:04:12;;;;;;;;;;;;;;;24.20;51.73;101124.94;4117746;28;19965;-55
2023/06/29 09:06:15;;;;;;;;;;;;;;;24.19;52.33;101131.28;4125533;28;19930;-57
2023/06/29 09:08:18;;;;;;;;;;;;;;;24.21;52.34;101130.16;4121918;28;20343;-57
2023/06/29 09:10:21;;;;;;;;;;;;;;;24.27;52.45;101128.78;4115182;28;19961;-56
2023/06/29 09:12:23;;;;;;;;;;;;;;;24.27;51.99;101120.72;4123801;28;20299;-57
2023/06/29 09:14:25;;;;;;;;;;;;;;;24.29;51.37;101118.75;4130069;28;20314;-58
2023/06/29 09:16:28;;;;;;;;;;;;;;;24.30;51.50;101117.75;4129043;28;20358;-57
2023/06/29 09:18:31;;;;;;;;;;;;;;;24.30;51.71;101115.06;4121103;28;19936;-57
2023/06/29 09:20:34;;;;;;;;;;;;;;;24.30;51.61;101125.81;4131030;28;19926;-57
2023/06/29 09:22:39;;;;;;;;;;;;;;;24.31;51.60;101124.84;4121272;28;20186;-56
2023/06/29 09:24:41;;;;;;;;;;;;;;;24.28;52.48;101118.88;4128141;28;20270;-57
2023/06/29 09:27:02;;;;;;;;;;;;;;;24.19;52.23;101123.22;4126623;28;19932;-57
2023/06/29 09:29:04;;;;;;;;;;;;;;;24.15;52.65;101121.81;4122756;28;20004;-57
2023/06/29 09:31:06;;;;;;;;;;;;;;;24.13;51.90;101121.06;4131072;28;19929;-57
2023/06/29 09:33:11;;;;;;;;;;;;;;;24.09;52.32;101124.00;4126018;28;20467;-57
2023/06/29 09:35:13;;;;;;;;;;;;;;;24.02;52.59;101120.19;4114810;28;19930;-58
2023/06/29 09:37:15;;;;;;;;;;;;;;;24.07;52.65;101125.13;4117215;28;19972;-58
2023/06/29 09:39:17;;;;;;;;;;;;;;;24.11;51.99;101125.72;4134554;28;19965;-57
2023/06/29 09:41:19;;;;;;;;;;;;;;;24.12;52.00;101127.44;4123770;28;20419;-57
2023/06/29 09:43:25;;;;;;;;;;;;;;;24.12;52.70;101125.63;4123382;28;19991;-57
2023/06/29 09:45:30;;;;;;;;;;;;;;;24.15;52.38;101129.88;4115695;28;19930;-56
2023/06/29 09:47:32;;;;;;;;;;;;;;;24.16;52.18;101120.81;4117066;28;19933;-57
2023/06/29 09:49:49;;;;;;;;;;;;;;;24.17;52.42;101128.75;4129335;28;19926;-57
2023/06/29 09:52:01;;;;;;;;;;;;;;;24.11;52.91;101129.28;4129468;28;19930;-57
2023/06/29 09:54:02;;;;;;;;;;;;;;;24.13;52.45;101132.66;4119749;28;19976;-58
2023/06/29 09:56:05;;;;;;;;;;;;;;;24.16;52.39;101135.09;4130010;28;19929;-58
2023/06/29 09:58:08;;;;;;;;;;;;;;;24.15;52.21;101133.38;4125659;28;19981;-56
2023/06/29 10:00:12;;;;;;;;;;;;;;;24.15;52.54;101130.69;4122425;28;20368;-57
2023/06/29 10:02:13;;;;;;;;;;;;;;;24.16;52.52;101124.34;4129891;28;19926;-57
2023/06/29 10:04:15;;;;;;;;;;;;;;;24.18;52.18;101134.94;4125246;28;19936;-58
2023/06/29 10:06:19;;;;;;;;;;;;;;;24.10;52.68;101130.25;4120746;28;19925;-58
2023/06/29 10:08:22;;;;;;;;;;;;;;;24.12;51.97;101135.50;4126385;28;20403;-59
2023/06/29 10:10:25;;;;;;;;;;;;;;;24.15;51.95;101129.88;4121227;28;20016;-59
2023/06/29 10:12:27;;;;;;;;;;;;;;;24.16;51.94;101134.25;4129922;28;19930;-58
2023/06/29 10:14:29;;;;;;;;;;;;;;;24.13;52.03;101131.81;4121212;28;19965;-58
2023/06/29 10:16:33;;;;;;;;;;;;;;;24.14;52.21;101139.75;4113443;28;19953;-58
2023/06/29 10:18:38;;;;;;;;;;;;;;;24.11;52.76;101140.03;4116128;28;19949;-59
2023/06/29 10:20:43;;;;;;;;;;;;;;;24.06;52.37;101135.03;4123060;28;19984;-58
2023/06/29 10:22:46;;;;;;;;;;;;;;;24.09;52.40;101137.44;4114279;28;19930;-58
2023/06/29 10:24:51;;;;;;;;;;;;;;;24.09;52.86;101136.59;4122817;28;19926;-58
2023/06/29 10:26:54;;;;;;;;;;;;;;;24.05;53.01;101136.03;4114744;28;19932;-58